createdAt,value
2019-01-25T00:00:21.697Z,25.00
2019-01-25T00:02:50.278Z,24.20
2019-01-25T00:05:18.851Z,24.60
2019-01-25T00:07:47.374Z,24.00
2019-01-25T00:10:15.870Z,23.10
2019-01-25T00:12:44.435Z,22.90
2019-01-25T00:15:13.038Z,24.90
2019-01-25T00:17:41.665Z,23.80
2019-01-25T00:20:12.313Z,24.00
2019-01-25T00:22:40.911Z,24.10
2019-01-25T00:25:09.480Z,23.30
2019-01-25T00:27:37.980Z,23.60
2019-01-25T00:30:18.200Z,23.50
2019-01-25T00:32:46.779Z,24.20
2019-01-25T00:35:15.411Z,25.50
2019-01-25T00:37:44.040Z,24.80
2019-01-25T00:40:15.397Z,24.40
2019-01-25T00:42:43.971Z,24.60
2019-01-25T00:45:12.758Z,23.90
2019-01-25T00:47:41.333Z,23.20
2019-01-25T00:50:30.855Z,24.10
2019-01-25T00:52:59.342Z,24.00
2019-01-25T00:55:27.905Z,23.90
2019-01-25T00:57:56.445Z,23.20
2019-01-25T01:00:26.518Z,22.90
2019-01-25T01:02:55.017Z,22.50
2019-01-25T01:05:23.615Z,22.30
2019-01-25T01:07:52.172Z,22.10
2019-01-25T01:10:21.012Z,22.10
2019-01-25T01:12:49.606Z,22.30
2019-01-25T01:15:18.255Z,23.20
2019-01-25T01:17:46.757Z,22.70
2019-01-25T01:20:17.340Z,22.50
2019-01-25T01:22:45.905Z,23.40
2019-01-25T01:25:14.548Z,24.90
2019-01-25T01:27:43.074Z,24.70
2019-01-25T01:30:17.223Z,24.30
2019-01-25T01:32:46.636Z,23.50
2019-01-25T01:35:15.236Z,22.90
2019-01-25T01:37:43.726Z,24.40
2019-01-25T01:40:21.807Z,25.30
2019-01-25T01:42:48.105Z,26.00
2019-01-25T01:45:16.742Z,26.80
2019-01-25T01:47:45.312Z,26.50
2019-01-25T01:50:15.596Z,26.40
2019-01-25T01:52:44.234Z,27.20
2019-01-25T01:55:12.795Z,26.30
2019-01-25T01:57:41.814Z,26.10
2019-01-25T02:00:13.509Z,25.70
2019-01-25T02:02:42.141Z,25.30
2019-01-25T02:05:10.815Z,24.50
2019-01-25T02:07:39.379Z,24.00
2019-01-25T02:10:11.141Z,23.40
2019-01-25T02:12:39.826Z,23.70
2019-01-25T02:15:10.665Z,22.90
2019-01-25T02:17:39.228Z,23.60
2019-01-25T02:20:11.261Z,23.80
2019-01-25T02:22:39.901Z,24.40
2019-01-25T02:25:08.466Z,23.50
2019-01-25T02:27:37.148Z,23.60
2019-01-25T02:30:11.457Z,22.60
2019-01-25T02:32:40.027Z,22.60
2019-01-25T02:35:09.717Z,23.60
2019-01-25T02:37:38.293Z,23.00
2019-01-25T02:40:10.130Z,23.10
2019-01-25T02:42:38.817Z,22.80
2019-01-25T02:45:10.047Z,23.20
2019-01-25T02:47:38.620Z,23.70
2019-01-25T02:50:18.159Z,23.10
2019-01-25T02:52:46.714Z,23.30
2019-01-25T02:55:16.291Z,23.00
2019-01-25T02:57:44.890Z,22.70
2019-01-25T03:00:18.813Z,22.40
2019-01-25T03:02:47.383Z,22.20
2019-01-25T03:05:17.483Z,22.20
2019-01-25T03:07:46.032Z,21.80
2019-01-25T03:10:16.396Z,22.10
2019-01-25T03:12:45.066Z,22.30
2019-01-25T03:15:18.679Z,23.30
2019-01-25T03:17:47.319Z,23.70
2019-01-25T03:20:16.694Z,22.60
2019-01-25T03:22:45.265Z,22.10
2019-01-25T03:25:16.711Z,21.60
2019-01-25T03:27:45.684Z,21.60
2019-01-25T03:30:17.005Z,22.10
2019-01-25T03:32:46.045Z,22.10
2019-01-25T03:35:16.300Z,22.60
2019-01-25T03:37:44.868Z,24.10
2019-01-25T03:40:16.190Z,23.30
2019-01-25T03:42:44.866Z,22.90
2019-01-25T03:45:14.640Z,23.00
2019-01-25T03:47:43.279Z,22.70
2019-01-25T03:50:17.830Z,21.70
2019-01-25T03:52:46.325Z,21.50
2019-01-25T03:55:15.087Z,21.50
2019-01-25T03:57:43.703Z,21.00
2019-01-25T04:00:17.642Z,21.00
2019-01-25T04:02:46.278Z,21.40
2019-01-25T04:05:15.863Z,22.50
2019-01-25T04:07:44.412Z,22.40
2019-01-25T04:10:15.500Z,22.50
2019-01-25T04:12:44.177Z,23.40
2019-01-25T04:15:15.865Z,23.00
2019-01-25T04:17:44.501Z,22.00
2019-01-25T04:20:18.401Z,22.00
2019-01-25T04:22:46.961Z,21.50
2019-01-25T04:25:17.426Z,20.50
2019-01-25T04:27:46.509Z,21.70
2019-01-25T04:30:26.516Z,21.90
2019-01-25T04:32:55.080Z,22.10
2019-01-25T04:35:24.139Z,21.80
2019-01-25T04:37:52.639Z,22.10
2019-01-25T04:40:21.188Z,21.60
2019-01-25T04:42:50.055Z,21.10
2019-01-25T04:45:20.983Z,21.60
2019-01-25T04:47:49.608Z,20.90
2019-01-25T04:50:20.489Z,23.20
2019-01-25T04:52:48.979Z,24.40
2019-01-25T04:55:28.190Z,24.00
2019-01-25T04:58:06.519Z,24.30
2019-01-25T05:00:35.070Z,24.20
2019-01-25T05:03:03.554Z,24.60
2019-01-25T05:05:51.509Z,25.90
2019-01-25T05:08:20.074Z,27.90
2019-01-25T05:10:48.640Z,26.20
2019-01-25T05:13:17.556Z,24.40
2019-01-25T05:15:46.048Z,23.20
2019-01-25T05:18:14.552Z,22.90
2019-01-25T05:20:43.089Z,22.80
2019-01-25T05:23:11.664Z,22.80
2019-01-25T05:25:40.159Z,22.80
2019-01-25T05:28:11.248Z,22.60
2019-01-25T05:30:39.874Z,21.90
2019-01-25T05:33:08.404Z,21.20
2019-01-25T05:35:37.714Z,21.00
2019-01-25T05:38:06.339Z,21.80
2019-01-25T05:40:34.911Z,22.10
2019-01-25T05:43:03.445Z,22.30
2019-01-25T05:45:31.940Z,23.40
2019-01-25T05:48:00.510Z,24.40
2019-01-25T05:50:29.038Z,26.40
2019-01-25T05:52:57.618Z,27.70
2019-01-25T05:55:26.188Z,28.10
2019-01-25T05:57:59.802Z,27.60
2019-01-25T06:00:29.935Z,25.40
2019-01-25T06:03:03.037Z,25.00
2019-01-25T06:05:31.647Z,25.40
2019-01-25T06:08:00.212Z,24.70
2019-01-25T06:10:31.967Z,23.60
2019-01-25T06:13:00.568Z,22.50
2019-01-25T06:15:29.402Z,22.00
2019-01-25T06:18:01.093Z,22.30
2019-01-25T06:20:29.813Z,23.00
2019-01-25T06:22:58.367Z,23.70
2019-01-25T06:25:27.005Z,23.10
2019-01-25T06:27:55.689Z,23.00
2019-01-25T06:30:24.315Z,23.30
2019-01-25T06:32:52.880Z,23.80
2019-01-25T06:35:21.479Z,24.70
2019-01-25T06:37:50.039Z,25.30
2019-01-25T06:40:18.618Z,24.40
2019-01-25T06:42:47.229Z,23.60
2019-01-25T06:45:15.789Z,22.50
2019-01-25T06:47:44.357Z,23.20
2019-01-25T06:50:13.807Z,23.50
2019-01-25T06:52:42.492Z,24.70
2019-01-25T06:55:11.144Z,25.50
2019-01-25T06:57:41.382Z,25.50
2019-01-25T07:00:16.847Z,25.30
2019-01-25T07:02:45.447Z,25.50
2019-01-25T07:05:14.086Z,24.60
2019-01-25T07:07:44.058Z,23.50
2019-01-25T07:10:15.673Z,23.90
2019-01-25T07:12:44.318Z,22.30
2019-01-25T07:15:14.728Z,22.50
2019-01-25T07:17:43.391Z,22.60
2019-01-25T07:20:14.400Z,23.50
2019-01-25T07:22:43.029Z,24.10
2019-01-25T07:25:13.776Z,25.20
2019-01-25T07:27:42.405Z,24.90
2019-01-25T07:30:15.533Z,23.80
2019-01-25T07:32:44.174Z,23.10
2019-01-25T07:35:12.809Z,23.40
2019-01-25T07:37:41.479Z,24.20
2019-01-25T07:40:11.140Z,25.00
2019-01-25T07:42:39.815Z,24.90
2019-01-25T07:45:12.078Z,27.00
2019-01-25T07:47:40.751Z,27.90
2019-01-25T07:50:11.440Z,27.10
2019-01-25T07:52:40.138Z,27.70
2019-01-25T07:55:12.736Z,27.50
2019-01-25T07:57:41.338Z,27.60
2019-01-25T08:00:30.896Z,27.00
2019-01-25T08:02:59.815Z,26.10
2019-01-25T08:05:28.367Z,25.20
2019-01-25T08:07:57.057Z,25.70
2019-01-25T08:10:25.684Z,25.70
2019-01-25T08:12:54.682Z,24.40
2019-01-25T08:15:25.268Z,23.50
2019-01-25T08:17:53.917Z,22.60
2019-01-25T08:20:22.989Z,22.40
2019-01-25T08:22:51.673Z,21.90
2019-01-25T08:25:20.305Z,21.60
2019-01-25T08:27:49.044Z,21.40
2019-01-25T08:30:24.817Z,21.80
2019-01-25T08:32:53.407Z,22.40
2019-01-25T08:35:22.001Z,22.20
2019-01-25T08:37:50.597Z,21.60
2019-01-25T08:40:19.207Z,21.40
2019-01-25T08:42:47.829Z,21.00
2019-01-25T08:45:17.715Z,21.00
2019-01-25T08:47:46.391Z,20.90
2019-01-25T08:50:28.075Z,20.10
2019-01-25T08:52:56.687Z,19.60
2019-01-25T08:55:25.279Z,19.40
2019-01-25T08:57:53.798Z,19.00
2019-01-25T09:00:25.966Z,20.00
2019-01-25T09:02:54.641Z,19.70
2019-01-25T09:05:23.305Z,21.10
2019-01-25T09:07:51.945Z,21.40
2019-01-25T09:10:24.876Z,21.00
2019-01-25T09:12:53.551Z,20.50
2019-01-25T09:15:24.787Z,21.20
2019-01-25T09:17:53.286Z,20.70
2019-01-25T09:20:22.394Z,20.60
2019-01-25T09:22:51.042Z,21.80
2019-01-25T09:25:19.687Z,22.30
2019-01-25T09:27:48.659Z,23.30
2019-01-25T09:30:23.196Z,21.60
2019-01-25T09:32:51.833Z,21.30
2019-01-25T09:35:20.451Z,21.30
2019-01-25T09:37:49.675Z,21.00
2019-01-25T09:40:26.217Z,19.90
2019-01-25T09:42:54.702Z,19.30
2019-01-25T09:45:23.268Z,21.00
2019-01-25T09:47:52.763Z,21.80
2019-01-25T09:50:22.503Z,21.40
2019-01-25T09:52:51.489Z,21.10
2019-01-25T09:55:24.503Z,22.20
2019-01-25T09:57:55.530Z,22.00
2019-01-25T10:00:27.390Z,21.30
2019-01-25T10:02:55.962Z,21.20
2019-01-25T10:05:24.451Z,22.70
2019-01-25T10:07:53.067Z,23.70
2019-01-25T10:10:21.701Z,24.10
2019-01-25T10:12:50.197Z,23.20
2019-01-25T10:15:24.464Z,21.70
2019-01-25T10:17:53.056Z,21.80
2019-01-25T10:20:21.619Z,21.40
2019-01-25T10:22:50.160Z,20.50
2019-01-25T10:25:18.720Z,20.70
2019-01-25T10:27:47.384Z,20.50
2019-01-25T10:30:27.083Z,20.50
2019-01-25T10:32:55.729Z,20.70
2019-01-25T10:35:24.386Z,19.90
2019-01-25T10:37:53.466Z,19.40
2019-01-25T10:40:22.998Z,19.60
2019-01-25T10:42:53.379Z,19.60
2019-01-25T10:45:24.692Z,19.80
2019-01-25T10:47:53.336Z,21.00
2019-01-25T10:50:22.752Z,22.70
2019-01-25T10:52:51.362Z,23.20
2019-01-25T10:55:19.858Z,23.30
2019-01-25T10:57:48.434Z,22.80
2019-01-25T11:00:21.911Z,22.70
2019-01-25T11:02:57.626Z,23.60
2019-01-25T11:05:23.416Z,23.10
2019-01-25T11:07:52.337Z,22.10
2019-01-25T11:10:20.902Z,21.40
2019-01-25T11:12:49.407Z,20.50
2019-01-25T11:15:20.283Z,20.60
2019-01-25T11:17:49.217Z,20.60
2019-01-25T11:20:19.576Z,20.30
2019-01-25T11:22:48.251Z,20.30
2019-01-25T11:25:19.671Z,20.60
2019-01-25T11:27:48.154Z,22.70
2019-01-25T11:30:17.360Z,24.30
2019-01-25T11:32:45.925Z,25.30
2019-01-25T11:35:14.416Z,26.60
2019-01-25T11:37:43.109Z,27.20
2019-01-25T11:40:32.567Z,25.80
2019-01-25T11:43:08.200Z,25.90
2019-01-25T11:45:31.744Z,24.20
2019-01-25T11:48:00.331Z,23.90
2019-01-25T11:50:31.442Z,23.20
2019-01-25T11:53:00.007Z,23.40
2019-01-25T11:55:28.661Z,24.70
2019-01-25T11:57:57.184Z,24.70
2019-01-25T12:00:29.882Z,25.40
2019-01-25T12:02:58.529Z,26.20
2019-01-25T12:05:27.138Z,26.60
2019-01-25T12:07:55.706Z,27.10
2019-01-25T12:10:32.932Z,28.60
2019-01-25T12:13:01.489Z,30.10
2019-01-25T12:15:29.994Z,30.70
2019-01-25T12:17:58.518Z,29.50
2019-01-25T12:20:32.039Z,28.10
2019-01-25T12:23:00.674Z,27.40
2019-01-25T12:25:29.358Z,27.10
2019-01-25T12:27:58.034Z,27.20
2019-01-25T12:30:29.809Z,27.50
2019-01-25T12:32:58.486Z,27.60
2019-01-25T12:35:29.527Z,26.90
2019-01-25T12:37:58.026Z,26.10
2019-01-25T12:40:26.704Z,25.90
2019-01-25T12:42:55.277Z,25.90
2019-01-25T12:45:29.491Z,25.30
2019-01-25T12:47:58.176Z,24.10
2019-01-25T12:50:29.697Z,24.00
2019-01-25T12:52:59.639Z,23.10
2019-01-25T12:55:32.582Z,22.60
2019-01-25T12:57:58.442Z,24.10
2019-01-25T13:00:27.081Z,25.10
2019-01-25T13:02:55.754Z,25.00
2019-01-25T13:05:24.247Z,25.80
2019-01-25T13:07:52.886Z,26.90
2019-01-25T13:10:26.259Z,26.80
2019-01-25T13:12:55.227Z,25.60
2019-01-25T13:15:23.855Z,24.20
2019-01-25T13:17:52.532Z,23.80
2019-01-25T13:20:23.935Z,22.80
2019-01-25T13:22:52.501Z,22.20
2019-01-25T13:25:21.563Z,21.50
2019-01-25T13:27:50.137Z,21.40
2019-01-25T13:30:21.549Z,21.80
2019-01-25T13:32:50.148Z,23.80
2019-01-25T13:35:19.410Z,23.40
2019-01-25T13:37:48.050Z,23.00
2019-01-25T13:40:18.830Z,22.40
2019-01-25T13:45:14.902Z,46.10
2019-01-25T13:47:43.516Z,24.60
2019-01-25T13:50:14.485Z,25.50
2019-01-25T13:52:43.041Z,25.40
2019-01-25T13:55:14.218Z,24.50
2019-01-25T13:57:42.860Z,25.10
2019-01-25T14:00:14.544Z,24.30
2019-01-25T14:02:43.151Z,24.80
2019-01-25T14:05:12.136Z,24.40
2019-01-25T14:07:40.706Z,23.60
2019-01-25T14:10:24.606Z,23.60
2019-01-25T14:12:53.177Z,23.90
2019-01-25T14:15:21.749Z,24.40
2019-01-25T14:17:50.372Z,24.10
2019-01-25T14:20:29.791Z,23.70
2019-01-25T14:22:58.466Z,24.80
2019-01-25T14:25:28.610Z,24.40
2019-01-25T14:27:57.091Z,25.80
2019-01-25T14:30:36.803Z,26.20
2019-01-25T14:33:05.964Z,26.40
2019-01-25T14:35:34.577Z,26.10
2019-01-25T14:38:03.160Z,27.00
